Time;durP1;ratioP1;P1;durP2;ratioP2;P2;SDS_P1;SDS_P2;PMS_P1;PMS_P2;Temp;Humidity;BMP_temperature;BMP_pressure;BME280_temperature;BME280_humidity;BME280_pressure;Samples;Min_cycle;Max_cycle;Signal;HPM_P1;HPM_P2
2021/09/12 00:00:04;;;;;;;;;;;19.90;92.70;19.80;99681.00;;;;339928;28;96472;-89
2021/09/12 00:00:16;;;;;;;;;;;19.90;92.80;19.80;99681.00;;;;339211;28;83497;-88
2021/09/12 00:00:28;;;;;;;;;;;19.90;92.80;19.80;99679.00;;;;337254;28;95596;-89
2021/09/12 00:00:40;;;;;;;;;;;19.90;92.80;19.80;99679.00;;;;339259;28;83306;-89
2021/09/12 00:00:52;;;;;;;;;;;19.90;92.70;19.90;99683.00;;;;338564;28;94410;-89
2021/09/12 00:01:04;;;;;;;;;;;19.80;92.70;19.90;99680.00;;;;339397;28;82406;-89
2021/09/12 00:01:16;;;;;;;;;;;19.90;92.70;19.90;99673.00;;;;338331;28;94577;-89
2021/09/12 00:01:29;;;;;;;;;;;19.90;92.70;20.00;99679.00;;;;339400;28;82411;-89
2021/09/12 00:01:41;;;;;;;;;;;19.90;92.70;20.00;99676.00;;;;337283;28;94164;-89
2021/09/12 00:01:53;;;;;;;;;;;19.80;92.60;19.90;99678.00;;;;339266;28;83471;-89
2021/09/12 00:02:05;;;;;;;;;;;19.80;92.60;20.00;99684.00;;;;337185;28;96965;-89
2021/09/12 00:02:17;;;;;;;;;;;19.80;92.60;20.10;99680.00;;;;337814;28;83370;-89
2021/09/12 00:02:29;;;;;;;;;;;19.80;92.70;20.00;99678.00;;;;339896;28;97363;-89
2021/09/12 00:02:41;;;;;;;;;;;19.80;92.70;20.00;99681.00;;;;336660;28;83439;-89
2021/09/12 00:02:54;;;;;;;;;;;19.80;92.70;20.00;99677.00;;;;335790;28;97457;-89
2021/09/12 00:03:06;;;;;;;;;;;19.80;93.00;19.90;99677.00;;;;338057;28;84216;-89
2021/09/12 00:03:18;;;;;;;;;;;19.90;92.90;20.00;99678.00;;;;339860;28;97213;-89
2021/09/12 00:03:30;;;;;;;;;;;19.80;92.80;19.90;99675.00;;;;340657;28;82466;-89
2021/09/12 00:03:42;;;;;;;;;;;19.80;92.90;20.00;99677.00;;;;337126;28;97026;-89
2021/09/12 00:03:54;;;;;;;;;;;19.80;92.80;20.10;99680.00;;;;339227;28;82584;-89
2021/09/12 00:04:06;;;;;;;;;;;19.90;92.80;20.10;99675.00;;;;338538;28;96313;-89
2021/09/12 00:04:18;;;;;;;;;;;19.80;92.80;20.00;99678.00;;;;339297;28;82554;-88
2021/09/12 00:04:30;;;;;;;;;;;19.80;92.80;19.90;99672.00;;;;338525;28;96492;-89
2021/09/12 00:04:42;;;;;;;;;;;19.80;92.80;20.00;99671.00;;;;339236;28;83641;-89
2021/09/12 00:04:53;;;;;;;;;;;19.80;92.70;20.00;99676.00;;;;337142;28;97266;-89
2021/09/12 00:05:06;;;;;;;;;;;19.80;92.60;20.00;99675.00;;;;336676;28;83524;-89
2021/09/12 00:05:18;;;;;;;;;;;19.80;92.60;19.90;99677.00;;;;338596;28;97235;-89
2021/09/12 00:05:30;;;;;;;;;;;19.80;92.70;19.90;99680.00;;;;338053;28;83412;-89
2021/09/12 00:05:42;;;;;;;;;;;19.80;92.90;19.90;99683.00;;;;338476;28;93774;-89
2021/09/12 00:05:53;;;;;;;;;;;19.80;92.70;19.90;99675.00;;;;339270;28;83373;-89
2021/09/12 00:06:05;;;;;;;;;;;19.80;92.60;19.90;99680.00;;;;338675;28;94707;-89
2021/09/12 00:06:17;;;;;;;;;;;19.80;92.60;19.90;99672.00;;;;339306;28;82630;-89
2021/09/12 00:06:29;;;;;;;;;;;19.80;92.60;20.00;99673.00;;;;338702;28;95164;-89
2021/09/12 00:06:42;;;;;;;;;;;19.80;92.70;19.80;99670.00;;;;339251;28;83390;-89
2021/09/12 00:06:54;;;;;;;;;;;19.80;92.70;19.80;99678.00;;;;335726;28;97501;-89
2021/09/12 00:07:05;;;;;;;;;;;19.80;92.90;19.80;99671.00;;;;340622;28;83515;-90
2021/09/12 00:07:17;;;;;;;;;;;19.80;92.90;19.90;99669.00;;;;338520;28;96348;-89
2021/09/12 00:07:29;;;;;;;;;;;19.80;92.80;19.90;99671.00;;;;337940;28;83490;-89
2021/09/12 00:07:41;;;;;;;;;;;19.80;92.80;19.90;99675.00;;;;338476;28;96335;-89
2021/09/12 00:07:52;;;;;;;;;;;19.80;92.80;19.80;99681.00;;;;340600;28;83520;-89
2021/09/12 00:08:04;;;;;;;;;;;19.80;92.70;19.80;99670.00;;;;338578;28;96577;-89
2021/09/12 00:08:16;;;;;;;;;;;19.80;92.80;19.80;99675.00;;;;340644;28;83307;-89
2021/09/12 00:08:28;;;;;;;;;;;19.80;92.90;19.80;99677.00;;;;339927;28;95401;-89
2021/09/12 00:08:40;;;;;;;;;;;19.80;92.90;19.80;99667.00;;;;341949;28;83438;-89
2021/09/12 00:08:51;;;;;;;;;;;19.80;93.00;19.80;99673.00;;;;339851;28;94679;-88
2021/09/12 00:09:03;;;;;;;;;;;19.80;92.90;19.80;99676.00;;;;340690;28;83376;-89
2021/09/12 00:09:15;;;;;;;;;;;19.80;92.80;19.90;99667.00;;;;338614;28;95626;-89
2021/09/12 00:09:27;;;;;;;;;;;19.70;92.70;19.80;99674.00;;;;337939;28;83275;-89
2021/09/12 00:09:39;;;;;;;;;;;19.70;92.80;19.90;99674.00;;;;338577;28;94103;-88
2021/09/12 00:09:50;;;;;;;;;;;19.70;92.80;19.90;99671.00;;;;340588;28;83504;-89
2021/09/12 00:10:04;;;;;;;;;;;19.70;92.90;19.90;99673.00;;;;338634;28;93018;-88
2021/09/12 00:10:15;;;;;;;;;;;19.70;92.80;19.90;99671.00;;;;339266;28;83172;-89
2021/09/12 00:10:27;;;;;;;;;;;19.70;92.80;20.00;99670.00;;;;339932;28;93949;-89
2021/09/12 00:10:39;;;;;;;;;;;19.70;92.80;20.00;99676.00;;;;340505;28;82550;-89
2021/09/12 00:10:51;;;;;;;;;;;19.70;92.90;20.00;99672.00;;;;341048;28;94051;-89
2021/09/12 00:11:03;;;;;;;;;;;19.70;92.90;20.00;99669.00;;;;342028;28;83286;-89
2021/09/12 00:11:15;;;;;;;;;;;19.80;93.00;20.00;99674.00;;;;339976;28;93874;-89
2021/09/12 00:11:26;;;;;;;;;;;19.70;92.90;19.90;99667.00;;;;340682;28;82570;-89
2021/09/12 00:11:38;;;;;;;;;;;19.70;92.90;19.80;99668.00;;;;336937;28;97437;-89
2021/09/12 00:11:50;;;;;;;;;;;19.70;92.90;19.80;99672.00;;;;339268;28;83490;-89
2021/09/12 00:12:02;;;;;;;;;;;19.70;92.90;19.80;99667.00;;;;339865;28;95494;-89
2021/09/12 00:12:14;;;;;;;;;;;19.70;92.90;19.70;99674.00;;;;340350;28;83653;-89
2021/09/12 00:12:26;;;;;;;;;;;19.70;93.00;19.70;99669.00;;;;337214;28;96667;-89
2021/09/12 00:12:38;;;;;;;;;;;19.70;93.00;19.70;99663.00;;;;339380;28;83247;-89
2021/09/12 00:12:50;;;;;;;;;;;19.70;93.00;19.90;99662.00;;;;338523;28;94672;-89
2021/09/12 00:13:03;;;;;;;;;;;19.70;93.20;19.80;99674.00;;;;336629;28;83407;-88
2021/09/12 00:13:15;;;;;;;;;;;19.70;93.10;19.80;99668.00;;;;337080;28;97086;-89
2021/09/12 00:13:27;;;;;;;;;;;19.70;93.00;19.90;99667.00;;;;339246;28;83482;-88
2021/09/12 00:13:41;;;;;;;;;;;19.70;93.00;19.90;99662.00;;;;338431;28;96665;-88
2021/09/12 00:13:52;;;;;;;;;;;19.70;93.00;19.80;99660.00;;;;339306;28;83447;-89
2021/09/12 00:14:04;;;;;;;;;;;19.70;93.00;19.80;99667.00;;;;338520;28;96324;-88
2021/09/12 00:14:17;;;;;;;;;;;19.70;93.00;19.70;99669.00;;;;339191;28;83508;-89
2021/09/12 00:14:28;;;;;;;;;;;19.70;93.10;19.70;99669.00;;;;334643;29;94377;-89
2021/09/12 00:14:40;;;;;;;;;;;19.70;93.00;19.80;99668.00;;;;339295;28;82436;-89
2021/09/12 00:14:52;;;;;;;;;;;19.70;93.00;19.90;99664.00;;;;341112;28;97495;-88
2021/09/12 00:15:06;;;;;;;;;;;19.70;93.00;19.90;99668.00;;;;337912;28;83432;-89
2021/09/12 00:15:18;;;;;;;;;;;19.70;93.00;20.00;99668.00;;;;337182;28;96415;-89
2021/09/12 00:15:30;;;;;;;;;;;19.70;93.00;19.90;99670.00;;;;336787;28;83272;-89
2021/09/12 00:15:42;;;;;;;;;;;19.70;93.00;19.80;99666.00;;;;336623;28;97223;-89
2021/09/12 00:15:54;;;;;;;;;;;19.70;93.00;19.80;99659.00;;;;338006;28;83711;-89
2021/09/12 00:16:05;;;;;;;;;;;19.70;93.00;19.70;99668.00;;;;338499;28;97297;-89
2021/09/12 00:16:18;;;;;;;;;;;19.70;93.00;19.70;99668.00;;;;339284;28;83343;-89
2021/09/12 00:16:30;;;;;;;;;;;19.70;93.00;19.70;99661.00;;;;339805;28;97146;-89
2021/09/12 00:16:42;;;;;;;;;;;19.70;93.00;19.70;99666.00;;;;339292;28;83405;-89
2021/09/12 00:16:54;;;;;;;;;;;19.70;93.10;19.80;99661.00;;;;339717;28;96201;-89
2021/09/12 00:17:06;;;;;;;;;;;19.70;93.00;19.80;99664.00;;;;336480;28;83397;-89
2021/09/12 00:17:18;;;;;;;;;;;19.70;93.00;19.90;99667.00;;;;337183;28;96628;-89
2021/09/12 00:17:30;;;;;;;;;;;19.70;93.00;19.80;99665.00;;;;339273;28;83325;-89
2021/09/12 00:17:42;;;;;;;;;;;19.70;93.10;19.70;99666.00;;;;337150;28;97061;-89
2021/09/12 00:17:54;;;;;;;;;;;19.60;93.00;19.80;99658.00;;;;337928;28;83369;-89
2021/09/12 00:18:05;;;;;;;;;;;19.70;93.10;19.90;99668.00;;;;339795;28;96218;-88
2021/09/12 00:18:17;;;;;;;;;;;19.70;93.00;20.00;99673.00;;;;339280;28;83464;-89
2021/09/12 00:18:29;;;;;;;;;;;19.70;93.00;20.00;99670.00;;;;337204;28;96533;-89
2021/09/12 00:18:40;;;;;;;;;;;19.70;93.00;20.00;99667.00;;;;338019;28;82509;-89
2021/09/12 00:18:52;;;;;;;;;;;19.70;93.00;20.00;99663.00;;;;339781;28;97698;-89
2021/09/12 00:19:04;;;;;;;;;;;19.70;92.90;20.00;99668.00;;;;337946;28;83443;-89
2021/09/12 00:19:16;;;;;;;;;;;19.70;92.90;20.00;99672.00;;;;338553;28;97291;-89
2021/09/12 00:19:28;;;;;;;;;;;19.70;93.00;19.90;99672.00;;;;339228;28;83404;-89
2021/09/12 00:19:39;;;;;;;;;;;19.70;93.00;19.90;99668.00;;;;338562;28;93144;-89
2021/09/12 00:19:51;;;;;;;;;;;19.70;93.00;20.00;99672.00;;;;336654;28;83242;-89
2021/09/12 00:20:04;;;;;;;;;;;19.70;93.00;20.00;99669.00;;;;337104;28;94699;-89
2021/09/12 00:20:15;;;;;;;;;;;19.70;93.10;20.00;99673.00;;;;337850;28;83419;-88
2021/09/12 00:20:27;;;;;;;;;;;19.70;93.10;20.00;99668.00;;;;337180;28;95439;-89
2021/09/12 00:20:39;;;;;;;;;;;19.70;93.10;20.00;99670.00;;;;339332;28;82413;-89
2021/09/12 00:20:50;;;;;;;;;;;19.70;93.10;20.00;99672.00;;;;338298;28;96513;-89
2021/09/12 00:21:02;;;;;;;;;;;19.70;93.10;20.00;99670.00;;;;337686;28;83449;-89
2021/09/12 00:21:14;;;;;;;;;;;19.70;93.10;19.90;99664.00;;;;338352;28;95839;-89
2021/09/12 00:21:26;;;;;;;;;;;19.70;93.20;19.90;99660.00;;;;340671;28;82509;-88
2021/09/12 00:21:38;;;;;;;;;;;19.70;93.10;19.90;99671.00;;;;339579;28;95531;-89
2021/09/12 00:21:50;;;;;;;;;;;19.70;93.10;19.90;99666.00;;;;339206;28;82445;-89
2021/09/12 00:22:02;;;;;;;;;;;19.70;93.00;19.90;99671.00;;;;339649;28;95342;-89
2021/09/12 00:22:14;;;;;;;;;;;19.70;93.00;19.90;99667.00;;;;340537;28;82559;-89
2021/09/12 00:22:26;;;;;;;;;;;19.70;93.00;19.90;99667.00;;;;339832;28;93278;-88
2021/09/12 00:22:38;;;;;;;;;;;19.70;93.10;19.90;99668.00;;;;339347;28;83294;-89
2021/09/12 00:22:49;;;;;;;;;;;19.70;93.00;19.90;99668.00;;;;338530;28;94890;-89
2021/09/12 00:23:01;;;;;;;;;;;19.70;93.00;19.80;99667.00;;;;340555;28;83396;-89
2021/09/12 00:23:13;;;;;;;;;;;19.70;93.20;19.90;99670.00;;;;338609;28;93331;-88
2021/09/12 00:23:25;;;;;;;;;;;19.70;93.10;19.90;99666.00;;;;339287;28;83464;-89
2021/09/12 00:23:37;;;;;;;;;;;19.70;93.10;19.90;99669.00;;;;338387;28;95150;-89
2021/09/12 00:23:48;;;;;;;;;;;19.70;93.10;19.80;99668.00;;;;337907;28;83486;-89
2021/09/12 00:24:00;;;;;;;;;;;19.70;93.10;19.80;99674.00;;;;337198;28;96526;-88
2021/09/12 00:24:12;;;;;;;;;;;19.70;93.20;19.90;99668.00;;;;339314;28;83293;-89
2021/09/12 00:24:24;;;;;;;;;;;19.70;93.10;19.80;99669.00;;;;338434;28;96880;-89
2021/09/12 00:24:35;;;;;;;;;;;19.70;93.20;19.80;99671.00;;;;337975;28;83430;-89
2021/09/12 00:24:47;;;;;;;;;;;19.70;93.30;19.80;99673.00;;;;339803;28;97531;-89
2021/09/12 00:25:00;;;;;;;;;;;19.70;93.40;19.70;99678.00;;;;337917;28;83551;-90
2021/09/12 00:25:11;;;;;;;;;;;19.70;93.40;19.80;99665.00;;;;337109;28;95300;-89
2021/09/12 00:25:23;;;;;;;;;;;19.70;93.30;19.90;99673.00;;;;339096;28;82461;-89
2021/09/12 00:25:35;;;;;;;;;;;19.70;93.20;19.80;99674.00;;;;339685;28;97519;-89
2021/09/12 00:25:47;;;;;;;;;;;19.70;93.30;19.80;99666.00;;;;340572;28;84265;-89
2021/09/12 00:25:58;;;;;;;;;;;19.70;93.30;19.70;99670.00;;;;338331;28;96762;-89
2021/09/12 00:26:10;;;;;;;;;;;19.70;93.30;19.80;99676.00;;;;341620;28;83570;-89
2021/09/12 00:26:22;;;;;;;;;;;19.60;93.40;19.80;99672.00;;;;339774;28;97099;-88
2021/09/12 00:26:34;;;;;;;;;;;19.60;93.30;19.70;99672.00;;;;340620;28;83778;-89
2021/09/12 00:26:45;;;;;;;;;;;19.60;93.40;19.70;99670.00;;;;339821;28;95185;-89
2021/09/12 00:26:57;;;;;;;;;;;19.60;93.40;19.60;99666.00;;;;339283;28;83329;-89
2021/09/12 00:27:09;;;;;;;;;;;19.60;93.50;19.60;99671.00;;;;339556;28;96517;-89
2021/09/12 00:27:21;;;;;;;;;;;19.60;93.60;19.70;99671.00;;;;340615;28;83409;-88
2021/09/12 00:27:33;;;;;;;;;;;19.60;93.60;19.70;99662.00;;;;339939;28;94038;-89
2021/09/12 00:27:44;;;;;;;;;;;19.50;93.50;19.80;99673.00;;;;339146;28;83525;-89
2021/09/12 00:27:56;;;;;;;;;;;19.60;93.50;19.80;99664.00;;;;339848;28;96747;-89
2021/09/12 00:28:08;;;;;;;;;;;19.60;93.60;19.70;99664.00;;;;340629;28;82496;-88
2021/09/12 00:28:20;;;;;;;;;;;19.60;93.50;19.80;99663.00;;;;338568;28;93820;-89
2021/09/12 00:28:32;;;;;;;;;;;19.60;93.50;19.70;99660.00;;;;337957;28;82537;-89
2021/09/12 00:28:43;;;;;;;;;;;19.60;93.50;19.70;99664.00;;;;341180;28;96624;-88
2021/09/12 00:28:55;;;;;;;;;;;19.60;93.70;19.70;99667.00;;;;339068;28;82582;-88
2021/09/12 00:29:07;;;;;;;;;;;19.60;93.70;19.80;99669.00;;;;338523;28;96853;-89
2021/09/12 00:29:20;;;;;;;;;;;19.60;93.60;19.80;99672.00;;;;342018;28;83439;-89
2021/09/12 00:29:32;;;;;;;;;;;19.60;93.70;19.90;99664.00;;;;337208;28;96302;-88
2021/09/12 00:29:43;;;;;;;;;;;19.60;93.60;19.90;99668.00;;;;338012;28;82504;-89
2021/09/12 00:29:56;;;;;;;;;;;19.60;93.60;19.90;99658.00;;;;339872;28;96588;-89
2021/09/12 00:30:09;;;;;;;;;;;19.60;93.60;19.90;99661.00;;;;343000;28;83396;-88
2021/09/12 00:30:20;;;;;;;;;;;19.60;93.70;19.90;99666.00;;;;337107;28;97105;-89
2021/09/12 00:30:32;;;;;;;;;;;19.60;93.60;19.80;99664.00;;;;340611;28;82539;-89
2021/09/12 00:30:44;;;;;;;;;;;19.60;93.50;19.80;99655.00;;;;339859;28;96378;-89
2021/09/12 00:30:56;;;;;;;;;;;19.60;93.50;19.70;99664.00;;;;339234;28;83381;-89
2021/09/12 00:31:08;;;;;;;;;;;19.50;93.70;19.70;99663.00;;;;337182;28;96434;-89
2021/09/12 00:31:19;;;;;;;;;;;19.50;93.70;19.70;99662.00;;;;342001;28;82492;-88
2021/09/12 00:31:31;;;;;;;;;;;19.60;93.70;19.70;99663.00;;;;338282;28;95652;-89
2021/09/12 00:31:43;;;;;;;;;;;19.50;93.60;19.70;99663.00;;;;343219;28;82575;-89
2021/09/12 00:31:55;;;;;;;;;;;19.60;93.60;19.70;99655.00;;;;338389;28;95481;-89
2021/09/12 00:32:07;;;;;;;;;;;19.60;93.50;19.70;99664.00;;;;339161;28;82514;-89
2021/09/12 00:32:18;;;;;;;;;;;19.50;93.50;19.70;99657.00;;;;338431;28;96541;-89
2021/09/12 00:32:30;;;;;;;;;;;19.50;93.60;19.70;99661.00;;;;340716;28;83303;-89
2021/09/12 00:32:42;;;;;;;;;;;19.50;93.60;19.60;99661.00;;;;339549;28;96537;-89
2021/09/12 00:32:54;;;;;;;;;;;19.60;93.70;19.60;99661.00;;;;341995;28;83420;-89
2021/09/12 00:33:06;;;;;;;;;;;19.50;93.80;19.60;99661.00;;;;338405;28;97043;-89
2021/09/12 00:33:17;;;;;;;;;;;19.50;93.80;19.70;99667.00;;;;339294;28;83427;-89
2021/09/12 00:33:31;;;;;;;;;;;19.50;93.60;19.60;99664.00;;;;337113;28;97770;-88
2021/09/12 00:33:43;;;;;;;;;;;19.50;93.80;19.60;99661.00;;;;342894;28;83561;-88
2021/09/12 00:33:54;;;;;;;;;;;19.50;93.80;19.60;99659.00;;;;341183;28;96603;-88
2021/09/12 00:34:06;;;;;;;;;;;19.50;93.90;19.60;99664.00;;;;340698;28;83290;-88
2021/09/12 00:34:18;;;;;;;;;;;19.50;93.90;19.60;99657.00;;;;339626;28;97681;-89
2021/09/12 00:34:30;;;;;;;;;;;19.50;93.90;19.50;99661.00;;;;339223;28;83445;-89
2021/09/12 00:34:41;;;;;;;;;;;19.50;93.90;19.60;99660.00;;;;338257;28;96361;-89
2021/09/12 00:34:53;;;;;;;;;;;19.50;93.90;19.60;99660.00;;;;339204;28;83400;-89
2021/09/12 00:35:05;;;;;;;;;;;19.50;93.80;19.60;99658.00;;;;335866;28;95240;-89
2021/09/12 00:35:17;;;;;;;;;;;19.50;93.90;19.60;99660.00;;;;339320;28;83395;-89
2021/09/12 00:35:29;;;;;;;;;;;19.40;93.90;19.50;99665.00;;;;339789;28;97528;-89
2021/09/12 00:35:41;;;;;;;;;;;19.40;94.00;19.50;99669.00;;;;339150;28;82647;-89
2021/09/12 00:35:52;;;;;;;;;;;19.40;94.10;19.50;99666.00;;;;338534;28;95380;-89
2021/09/12 00:36:04;;;;;;;;;;;19.40;94.10;19.50;99668.00;;;;337869;28;82382;-89
2021/09/12 00:36:16;;;;;;;;;;;19.40;94.10;19.40;99665.00;;;;338443;28;96334;-89
2021/09/12 00:36:28;;;;;;;;;;;19.40;94.00;19.40;99671.00;;;;337929;28;83370;-89
2021/09/12 00:36:40;;;;;;;;;;;19.40;94.00;19.40;99665.00;;;;338368;28;95745;-89
2021/09/12 00:36:52;;;;;;;;;;;19.40;94.00;19.40;99671.00;;;;336604;28;83382;-89
2021/09/12 00:37:04;;;;;;;;;;;19.40;94.10;19.40;99663.00;;;;337191;28;96326;-89
2021/09/12 00:37:15;;;;;;;;;;;19.30;94.00;19.50;99664.00;;;;340589;28;83517;-89
2021/09/12 00:37:27;;;;;;;;;;;19.30;93.90;19.50;99665.00;;;;339587;28;95590;-89
2021/09/12 00:37:39;;;;;;;;;;;19.40;93.80;19.50;99669.00;;;;337936;28;83426;-89
2021/09/12 00:37:51;;;;;;;;;;;19.30;93.90;19.50;99666.00;;;;338536;28;95190;-89
2021/09/12 00:38:03;;;;;;;;;;;19.30;93.80;19.50;99662.00;;;;340580;28;83385;-89
2021/09/12 00:38:15;;;;;;;;;;;19.30;93.90;19.50;99675.00;;;;338468;28;96416;-89
2021/09/12 00:38:26;;;;;;;;;;;19.30;93.90;19.50;99672.00;;;;336564;28;83398;-89
2021/09/12 00:38:38;;;;;;;;;;;19.30;93.80;19.40;99669.00;;;;337172;28;96138;-89
2021/09/12 00:38:50;;;;;;;;;;;19.30;94.00;19.30;99662.00;;;;339323;28;83408;-89
2021/09/12 00:39:02;;;;;;;;;;;19.30;94.10;19.40;99666.00;;;;338506;28;95243;-89
2021/09/12 00:39:13;;;;;;;;;;;19.30;94.10;19.40;99665.00;;;;340585;28;82446;-89
2021/09/12 00:39:25;;;;;;;;;;;19.30;94.10;19.50;99666.00;;;;338451;28;95891;-89
2021/09/12 00:39:37;;;;;;;;;;;19.30;93.90;19.40;99671.00;;;;340618;28;83433;-89
2021/09/12 00:39:49;;;;;;;;;;;19.30;93.90;19.50;99668.00;;;;338476;28;96849;-89
2021/09/12 00:40:00;;;;;;;;;;;19.30;93.90;19.50;99667.00;;;;340569;28;83420;-89
2021/09/12 00:40:12;;;;;;;;;;;19.30;93.90;19.40;99663.00;;;;338495;28;95310;-89
2021/09/12 00:40:25;;;;;;;;;;;19.30;94.10;19.30;99673.00;;;;339132;28;83479;-89
2021/09/12 00:40:37;;;;;;;;;;;19.30;94.10;19.30;99661.00;;;;338368;28;95127;-89
2021/09/12 00:40:48;;;;;;;;;;;19.30;94.20;19.30;99671.00;;;;341938;28;82360;-88
2021/09/12 00:41:00;;;;;;;;;;;19.30;94.20;19.30;99662.00;;;;337026;28;95729;-88
2021/09/12 00:41:12;;;;;;;;;;;19.30;94.20;19.30;99668.00;;;;337953;28;83477;-90
2021/09/12 00:41:24;;;;;;;;;;;19.30;94.20;19.40;99670.00;;;;339562;28;97423;-89
2021/09/12 00:41:37;;;;;;;;;;;19.30;94.20;19.50;99664.00;;;;339234;28;83428;-89
2021/09/12 00:41:49;;;;;;;;;;;19.30;94.10;19.50;99670.00;;;;335896;28;96413;-89
2021/09/12 00:42:00;;;;;;;;;;;19.30;94.10;19.50;99668.00;;;;340682;28;83279;-89
2021/09/12 00:42:12;;;;;;;;;;;19.30;94.10;19.50;99669.00;;;;338947;28;96365;-88
2021/09/12 00:42:24;;;;;;;;;;;19.30;94.10;19.40;99676.00;;;;340561;28;82502;-88
2021/09/12 00:42:36;;;;;;;;;;;19.30;94.20;19.40;99672.00;;;;337103;28;97350;-88
2021/09/12 00:42:48;;;;;;;;;;;19.30;94.30;19.40;99664.00;;;;340606;28;83302;-89
2021/09/12 00:43:00;;;;;;;;;;;19.30;94.30;19.40;99664.00;;;;336998;28;97100;-89
2021/09/12 00:43:12;;;;;;;;;;;19.30;94.40;19.40;99668.00;;;;339397;28;83312;-89
2021/09/12 00:43:25;;;;;;;;;;;19.30;94.30;19.40;99663.00;;;;338540;28;95359;-89
2021/09/12 00:43:36;;;;;;;;;;;19.30;94.30;19.30;99667.00;;;;336615;28;83337;-89
2021/09/12 00:43:48;;;;;;;;;;;19.20;94.30;19.40;99664.00;;;;339868;28;96526;-89
2021/09/12 00:44:00;;;;;;;;;;;19.30;94.20;19.40;99667.00;;;;341918;28;83453;-89
2021/09/12 00:44:12;;;;;;;;;;;19.20;94.20;19.40;99660.00;;;;337311;28;95363;-89
2021/09/12 00:44:24;;;;;;;;;;;19.30;94.20;19.30;99667.00;;;;337892;28;82658;-89
2021/09/12 00:44:36;;;;;;;;;;;19.20;94.30;19.40;99666.00;;;;338447;28;96204;-89
2021/09/12 00:44:48;;;;;;;;;;;19.20;94.50;19.50;99671.00;;;;339176;28;83481;-88
2021/09/12 00:45:00;;;;;;;;;;;19.20;94.10;19.50;99675.00;;;;337080;28;96450;-89
2021/09/12 00:45:11;;;;;;;;;;;19.20;94.10;19.50;99663.00;;;;337753;28;83820;-89
2021/09/12 00:45:23;;;;;;;;;;;19.20;94.10;19.40;99670.00;;;;337339;28;94635;-89
2021/09/12 00:45:35;;;;;;;;;;;19.20;94.20;19.30;99672.00;;;;340545;28;83367;-89
2021/09/12 00:45:52;;;;;;;;;;;19.20;94.30;19.40;99670.00;;;;338510;28;97170;-89
2021/09/12 00:46:06;;;;;;;;;;;19.20;94.20;19.40;99672.00;;;;340403;28;83421;-89
2021/09/12 00:46:18;;;;;;;;;;;19.20;94.10;19.40;99674.00;;;;337210;28;93761;-89
2021/09/12 00:46:30;;;;;;;;;;;19.30;94.10;19.40;99668.00;;;;339315;28;83372;-88
2021/09/12 00:46:43;;;;;;;;;;;19.20;94.00;19.40;99666.00;;;;339673;28;97544;-89
2021/09/12 00:46:55;;;;;;;;;;;19.30;94.00;19.40;99662.00;;;;339204;28;83400;-88
2021/09/12 00:47:09;;;;;;;;;;;19.30;94.00;19.40;99670.00;;;;338535;28;97072;-89
2021/09/12 00:47:20;;;;;;;;;;;19.20;94.10;19.40;99665.00;;;;339269;28;83427;-89
2021/09/12 00:47:34;;;;;;;;;;;19.20;94.00;19.30;99664.00;;;;339757;28;97018;-89
2021/09/12 00:47:46;;;;;;;;;;;19.20;94.20;19.30;99664.00;;;;340484;28;82565;-89
2021/09/12 00:47:58;;;;;;;;;;;19.20;94.10;19.30;99665.00;;;;338590;28;95649;-88
2021/09/12 00:48:10;;;;;;;;;;;19.20;94.10;19.30;99666.00;;;;339234;28;83512;-89
2021/09/12 00:48:22;;;;;;;;;;;19.20;94.20;19.40;99663.00;;;;338446;28;96611;-89
2021/09/12 00:48:34;;;;;;;;;;;19.20;94.10;19.30;99664.00;;;;341977;28;83374;-89
2021/09/12 00:48:46;;;;;;;;;;;19.20;94.20;19.40;99663.00;;;;338181;28;97225;-89
2021/09/12 00:48:58;;;;;;;;;;;19.20;94.30;19.40;99660.00;;;;340453;28;84119;-88
2021/09/12 00:49:10;;;;;;;;;;;19.20;94.40;19.30;99658.00;;;;338573;28;94096;-89
2021/09/12 00:49:22;;;;;;;;;;;19.20;94.10;19.30;99664.00;;;;339188;28;82477;-88
2021/09/12 00:49:33;;;;;;;;;;;19.20;94.10;19.30;99670.00;;;;341025;28;97245;-89
2021/09/12 00:49:45;;;;;;;;;;;19.20;94.10;19.40;99668.00;;;;339207;28;82543;-89
2021/09/12 00:49:57;;;;;;;;;;;19.20;94.00;19.40;99657.00;;;;339744;28;96913;-89
2021/09/12 00:50:09;;;;;;;;;;;19.20;94.10;19.40;99666.00;;;;341934;28;82446;-89
2021/09/12 00:50:21;;;;;;;;;;;19.20;94.10;19.50;99666.00;;;;339866;28;93858;-89
2021/09/12 00:50:33;;;;;;;;;;;19.20;94.20;19.50;99664.00;;;;336651;28;83363;-89
2021/09/12 00:50:45;;;;;;;;;;;19.20;94.20;19.50;99664.00;;;;341084;28;97463;-89
2021/09/12 00:50:57;;;;;;;;;;;19.20;94.30;19.50;99665.00;;;;339249;28;83394;-89
2021/09/12 00:51:08;;;;;;;;;;;19.20;94.40;19.50;99661.00;;;;338887;28;96446;-89
2021/09/12 00:51:20;;;;;;;;;;;19.30;94.40;19.40;99664.00;;;;337993;28;82656;-89
2021/09/12 00:51:32;;;;;;;;;;;19.20;94.50;19.40;99668.00;;;;337143;28;95979;-89
2021/09/12 00:51:44;;;;;;;;;;;19.20;94.50;19.50;99664.00;;;;343272;28;83339;-89
2021/09/12 00:51:55;;;;;;;;;;;19.20;94.40;19.50;99661.00;;;;338501;28;96765;-89
2021/09/12 00:52:08;;;;;;;;;;;19.20;94.30;19.50;99668.00;;;;338113;28;82467;-89
2021/09/12 00:52:20;;;;;;;;;;;19.20;94.30;19.40;99663.00;;;;341079;28;97003;-89
2021/09/12 00:52:33;;;;;;;;;;;19.20;94.40;19.40;99663.00;;;;343344;28;83388;-89
2021/09/12 00:52:45;;;;;;;;;;;19.20;94.40;19.30;99664.00;;;;337196;28;94774;-88
2021/09/12 00:53:00;;;;;;;;;;;19.30;94.50;19.30;99660.00;;;;339116;28;82507;-89
2021/09/12 00:53:12;;;;;;;;;;;19.30;94.50;19.30;99660.00;;;;338639;28;92822;-89
2021/09/12 00:53:24;;;;;;;;;;;19.20;94.50;19.30;99663.00;;;;339253;28;83427;-89
2021/09/12 00:53:36;;;;;;;;;;;19.20;94.50;19.30;99659.00;;;;339822;28;96529;-89
2021/09/12 00:53:49;;;;;;;;;;;19.20;94.50;19.30;99665.00;;;;339052;28;83600;-88
2021/09/12 00:54:03;;;;;;;;;;;19.20;94.40;19.30;99662.00;;;;338568;28;94045;-90
2021/09/12 00:54:15;;;;;;;;;;;19.20;94.40;19.30;99663.00;;;;341876;28;83908;-89
2021/09/12 00:54:26;;;;;;;;;;;19.20;94.40;19.30;99663.00;;;;339327;28;97056;-89
2021/09/12 00:54:38;;;;;;;;;;;19.20;94.30;19.30;99664.00;;;;342731;28;82247;-89
2021/09/12 00:54:50;;;;;;;;;;;19.20;94.30;19.20;99665.00;;;;339761;28;97410;-89
2021/09/12 00:55:03;;;;;;;;;;;19.20;94.50;19.20;99663.00;;;;339190;28;83485;-89
2021/09/12 00:55:15;;;;;;;;;;;19.20;94.50;19.30;99660.00;;;;338550;28;94407;-89
2021/09/12 00:55:27;;;;;;;;;;;19.20;94.40;19.30;99668.00;;;;340599;28;82571;-88
2021/09/12 00:55:39;;;;;;;;;;;19.20;94.40;19.30;99662.00;;;;341027;28;96917;-89
2021/09/12 00:55:52;;;;;;;;;;;19.20;94.40;19.30;99659.00;;;;340602;28;83350;-88
2021/09/12 00:56:04;;;;;;;;;;;19.20;94.30;19.30;99666.00;;;;338489;28;96091;-89
2021/09/12 00:56:16;;;;;;;;;;;19.20;94.40;19.30;99664.00;;;;337953;28;82455;-89
2021/09/12 00:56:28;;;;;;;;;;;19.20;94.40;19.30;99662.00;;;;339594;28;97601;-87
2021/09/12 00:56:40;;;;;;;;;;;19.20;94.30;19.30;99660.00;;;;341916;28;83305;-89
2021/09/12 00:56:52;;;;;;;;;;;19.20;94.30;19.30;99660.00;;;;337275;28;98522;-89
2021/09/12 00:57:06;;;;;;;;;;;19.20;94.50;19.30;99664.00;;;;340818;28;83492;-89
2021/09/12 00:57:18;;;;;;;;;;;19.20;94.50;19.30;99663.00;;;;335882;28;97499;-89
2021/09/12 00:57:32;;;;;;;;;;;19.20;94.50;19.30;99657.00;;;;339629;28;82461;-89
2021/09/12 00:57:45;;;;;;;;;;;19.20;94.50;19.30;99658.00;;;;338599;28;97250;-88
2021/09/12 00:57:56;;;;;;;;;;;19.20;94.30;19.40;99663.00;;;;340614;28;83541;-89
2021/09/12 00:58:11;;;;;;;;;;;19.20;94.40;19.50;99664.00;;;;337465;28;94199;-89
2021/09/12 00:58:22;;;;;;;;;;;19.20;94.50;19.50;99666.00;;;;338102;28;83504;-89
2021/09/12 00:58:36;;;;;;;;;;;19.20;94.70;19.50;99657.00;;;;338757;28;95651;-88
2021/09/12 00:58:48;;;;;;;;;;;19.20;94.70;19.30;99659.00;;;;339567;28;83313;-89
2021/09/12 00:59:00;;;;;;;;;;;19.20;94.70;19.40;99664.00;;;;338401;28;96419;-89
2021/09/12 00:59:12;;;;;;;;;;;19.20;94.60;19.40;99659.00;;;;339495;28;83396;-89
2021/09/12 00:59:24;;;;;;;;;;;19.20;94.80;19.50;99659.00;;;;338541;28;97494;-89